This is the latest recevied weather packets stored in our database for station/object N4OGP-WX. If no packets are shown the sender has not sent any weather packets the latest 10 day(s).
| Time | Temp. | Humidity | Pressure | Rain* | Wind** | Luminosity | Snow |
|---|---|---|---|---|---|---|---|
| 1778264819 | 21.67° C | 86% | 1011.4 hPa | 0 mm | - | - | - |
| 1778264759 | 21.67° C | 86% | 1011.4 hPa | 0 mm | - | - | - |
| 1778264669 | 23.89° C | 42% | 1020.4 hPa | 0 mm | - | - | - |
| 1778264579 | 23.89° C | 42% | 1020.4 hPa | 0 mm | - | - | - |
| 1778264489 | 21.67° C | 86% | 1011.4 hPa | 0 mm | - | - | - |
| 1778264429 | 21.67° C | 85% | 1011.4 hPa | 0 mm | - | - | - |
| 1778264369 | 21.67° C | 85% | 1011.5 hPa | 0 mm | - | - | - |
| 1778264279 | 23.89° C | 42% | 1020.4 hPa | 0 mm | - | - | - |
| 1778264219 | 21.67° C | 85% | 1011.6 hPa | 0 mm | - | - | - |
| 1778264129 | 21.67° C | 85% | 1011.7 hPa | 0 mm | - | - | - |
| 1778264039 | 21.67° C | 85% | 1011.6 hPa | 0 mm | - | - | - |
| 1778263949 | 23.89° C | 42% | 1020.4 hPa | 0 mm | - | - | - |
| 1778263889 | 23.89° C | 42% | 1020.4 hPa | 0 mm | - | - | - |
| 1778263799 | 23.89° C | 42% | 1020.4 hPa | 0 mm | - | - | - |
| 1778263739 | 21.67° C | 85% | 1011.5 hPa | 0 mm | - | - | - |
| 1778263649 | 23.89° C | 42% | 1020.4 hPa | 0 mm | - | - | - |
| 1778263559 | 21.67° C | 85% | 1011.5 hPa | 0 mm | - | - | - |
| 1778263499 | 21.67° C | 85% | 1011.5 hPa | 0 mm | - | - | - |
| 1778263439 | 21.67° C | 85% | 1011.5 hPa | 0 mm | - | - | - |
| 1778263349 | 23.89° C | 42% | 1020.4 hPa | 0 mm | - | - | - |
| 1778263289 | 23.89° C | 42% | 1020.4 hPa | 0 mm | - | - | - |
| 1778263229 | 23.89° C | 42% | 1020.4 hPa | 0 mm | - | - | - |
| 1778263169 | 23.89° C | 42% | 1020.4 hPa | 0 mm | - | - | - |
| 1778263079 | 23.89° C | 42% | 1020.4 hPa | 0 mm | - | - | - |
| 1778262989 | 21.67° C | 85% | 1011.3 hPa | 0 mm | - | - | - |
* Rain latest hour (hover to see other rain measurements)
** Current wind speed in m/s (hover to see current wind gust speed)